Terminal Aerodrome Forecast
Issued by NWS Indianapolis, IN

Home | Current Version | Previous Version | Text Only | Print | Product List | Glossary On
Versions: 1 2 3 4 5 6 7 8 9 10 11 12 13 14 15 16 17 18 19 20 21 22 23 24 25 26 27 28 29
000
FTUS43 KIND 292009 AAC
TAFIND
TAF AMD
KIND 292009Z 2920/3024 09012G20KT P6SM FEW040 SCT130 BKN250
     FM300100 08010KT P6SM BKN080
     FM301000 10009KT P6SM VCSH OVC060
     FM301200 10009KT P6SM OVC045
     FM301400 12010KT 6SM -SHRA OVC050=

USA.gov is the U.S. government's official web portal to all federal, state and local government web resources and services.